Accueil
METAR-TAF:

METAR-TAF

Aéroports :

Aéroport de Stockholm-Arlanda

Stockholm-Arlanda, Suède

latitude: 59-39N, longitude: 017-57E, altitude: 38 m

Observation

Le bulletin a été fait il y a 32 minutes, à 21:50 UTC
Vent 2 kt de sud-ouest
Température 5°C
Humidité 60%
Pression 1034 hPa
Visibilité 10 km ou plus
pas de nuages en-dessous de 1500 mètres et pas de cumulonimbus.

METAR: ESSA 192150Z 22002KT CAVOK 05/M02 Q1034 NOSIG

Heure: 00:22 (22:22 UTC)

Prévision

Le bulletin a été fait il y a 4 heures et 52 minutes, à 17:30 UTC
Prévision valable du 19 à 18 UTC au 20 à 18 UTC
Vent 5 kt de nord
Visibilité 10 km ou plus
pas de nuages en-dessous de 1500 mètres et pas de cumulonimbus.

TAF: ESSA 191730Z 1918/2018 01005KT CAVOK

Observations et prévisions météorologiques de plus de 4000 aéroports (messages METAR et TAF).

Les stations disponibles sont représentées par des disques jaunes et rouges sur la carte.

Passer la souris dessus pour voir le nom de la station.

Cliquer dessus pour voir les observations et prévisions météorologiques.

Pour changer de carte: cliquez sur les boutons verts avec une croix noire pour zoomer, sur le bouton vert avec un tiret pour effectuer un zoom arrière, ou sur les flèches vertes pour les cartes adjacentes.


METAR-TAF: